createdAt,value
2023-04-29T00:02:57.080Z,93.92
2023-04-29T00:06:59.020Z,94.28
2023-04-29T00:11:00.822Z,94.42
2023-04-29T00:15:04.889Z,94.42
2023-04-29T00:19:07.209Z,93.95
2023-04-29T00:23:09.370Z,94.37
2023-04-29T00:27:12.153Z,94.35
2023-04-29T00:31:14.761Z,94.07
2023-04-29T00:35:16.732Z,94.12
2023-04-29T00:39:18.679Z,93.89
2023-04-29T00:43:20.615Z,93.91
2023-04-29T00:47:22.580Z,94.30
2023-04-29T00:51:24.830Z,94.20
2023-04-29T00:55:27.914Z,94.84
2023-04-29T00:59:32.525Z,94.52
2023-04-29T01:03:34.437Z,94.67
2023-04-29T01:07:45.371Z,94.79
2023-04-29T01:12:07.004Z,94.58
2023-04-29T01:16:13.278Z,94.95
2023-04-29T01:20:15.704Z,94.89
2023-04-29T01:24:17.832Z,94.58
2023-04-29T01:28:46.664Z,95.21
2023-04-29T01:32:59.366Z,94.73
2023-04-29T01:37:27.185Z,94.64
2023-04-29T01:41:39.362Z,94.88
2023-04-29T01:45:53.686Z,94.69
2023-04-29T01:49:56.884Z,93.87
2023-04-29T01:53:59.250Z,93.73
2023-04-29T01:58:01.658Z,93.24
2023-04-29T02:02:21.709Z,93.35
2023-04-29T02:06:33.795Z,92.99
2023-04-29T02:10:38.429Z,92.81
2023-04-29T02:14:57.471Z,92.76
2023-04-29T02:19:00.936Z,92.41
2023-04-29T02:23:02.842Z,92.53
2023-04-29T02:27:06.301Z,92.86
2023-04-29T02:31:08.213Z,92.44
2023-04-29T02:35:10.316Z,92.35
2023-04-29T02:39:12.255Z,92.42
2023-04-29T02:43:14.376Z,92.55
2023-04-29T02:47:16.176Z,92.34
2023-04-29T02:51:17.954Z,92.53
2023-04-29T02:55:20.380Z,92.15
2023-04-29T02:59:22.656Z,92.14
2023-04-29T03:03:24.650Z,91.99
2023-04-29T03:07:28.774Z,91.46
2023-04-29T03:11:30.870Z,91.66
2023-04-29T03:15:32.759Z,91.52
2023-04-29T03:19:34.658Z,90.76
2023-04-29T03:23:36.528Z,90.61
2023-04-29T03:27:39.858Z,90.44
2023-04-29T03:31:42.778Z,90.59
2023-04-29T03:35:45.928Z,90.40
2023-04-29T03:40:19.896Z,90.35
2023-04-29T03:44:22.930Z,89.76
2023-04-29T03:48:25.032Z,90.22
2023-04-29T03:52:27.790Z,89.45
2023-04-29T03:56:35.040Z,89.54
2023-04-29T04:00:37.109Z,89.37
2023-04-29T04:04:44.327Z,89.30
2023-04-29T04:08:46.723Z,89.56
2023-04-29T04:12:52.752Z,89.50
2023-04-29T04:16:55.903Z,90.18
2023-04-29T04:20:58.187Z,90.60
2023-04-29T04:25:01.411Z,90.87
2023-04-29T04:29:03.699Z,91.07
2023-04-29T04:33:13.133Z,91.30
2023-04-29T04:37:18.413Z,91.38
2023-04-29T04:41:31.672Z,91.52
2023-04-29T04:45:34.484Z,91.63
2023-04-29T04:49:36.488Z,91.65
2023-04-29T04:53:39.149Z,91.73
2023-04-29T04:57:47.847Z,91.54
2023-04-29T05:01:49.694Z,91.40
2023-04-29T05:05:59.116Z,91.54
2023-04-29T05:10:01.092Z,91.53
2023-04-29T05:14:03.238Z,91.44
2023-04-29T05:18:05.325Z,91.30
2023-04-29T05:22:07.608Z,91.13
2023-04-29T05:26:10.434Z,91.29
2023-04-29T05:30:12.674Z,91.46
2023-04-29T05:34:14.584Z,90.86
2023-04-29T05:38:17.565Z,91.03
2023-04-29T05:42:24.950Z,91.01
2023-04-29T05:46:26.793Z,90.61
2023-04-29T05:50:29.032Z,90.25
2023-04-29T05:54:30.929Z,90.12
2023-04-29T05:58:33.044Z,90.03
2023-04-29T06:02:39.487Z,89.13
2023-04-29T06:06:47.819Z,88.04
2023-04-29T06:11:05.480Z,87.69
2023-04-29T06:15:08.030Z,86.56
2023-04-29T06:19:10.426Z,85.78
2023-04-29T06:23:12.915Z,86.17
2023-04-29T06:27:14.918Z,86.04
2023-04-29T06:31:17.099Z,85.74
2023-04-29T06:35:19.013Z,85.34
2023-04-29T06:39:39.589Z,85.85
2023-04-29T06:43:52.346Z,84.39
2023-04-29T06:48:13.124Z,84.80
2023-04-29T06:52:21.116Z,83.84
2023-04-29T06:56:24.092Z,83.62
2023-04-29T07:00:26.088Z,83.17
2023-04-29T07:04:30.956Z,82.97
2023-04-29T07:08:33.457Z,82.35
2023-04-29T07:12:35.321Z,82.21
2023-04-29T07:16:37.220Z,81.89
2023-04-29T07:20:39.007Z,81.39
2023-04-29T07:24:41.721Z,80.05
2023-04-29T07:28:44.387Z,79.98
2023-04-29T07:32:46.444Z,79.21
2023-04-29T07:36:48.333Z,79.14
2023-04-29T07:40:50.136Z,78.05
2023-04-29T07:44:52.100Z,77.24
2023-04-29T07:48:54.645Z,77.76
2023-04-29T07:52:58.042Z,76.29
2023-04-29T07:57:00.732Z,76.36
2023-04-29T08:01:12.562Z,75.95
2023-04-29T08:05:16.028Z,75.58
2023-04-29T08:09:18.202Z,75.41
2023-04-29T08:13:19.994Z,74.73
2023-04-29T08:17:21.900Z,74.41
2023-04-29T08:21:24.444Z,71.93
2023-04-29T08:25:27.328Z,73.65
2023-04-29T08:29:33.007Z,73.11
2023-04-29T08:33:35.466Z,72.50
2023-04-29T08:37:37.836Z,72.79
2023-04-29T08:41:39.750Z,72.68
2023-04-29T08:45:45.444Z,72.33
2023-04-29T08:49:47.289Z,71.40
2023-04-29T08:53:49.152Z,71.16
2023-04-29T08:57:54.673Z,70.70
2023-04-29T09:01:57.618Z,70.96
2023-04-29T09:06:01.842Z,70.64
2023-04-29T09:10:05.293Z,70.08
2023-04-29T09:14:08.436Z,70.04
2023-04-29T09:18:10.387Z,69.97
2023-04-29T09:22:12.157Z,70.42
2023-04-29T09:26:14.951Z,69.41
2023-04-29T09:30:17.246Z,69.48
2023-04-29T09:34:35.838Z,67.79
2023-04-29T09:38:54.061Z,66.76
2023-04-29T09:42:55.954Z,66.97
2023-04-29T09:47:03.558Z,67.11
2023-04-29T09:51:06.331Z,67.55
2023-04-29T09:55:08.737Z,67.87
2023-04-29T09:59:10.593Z,66.87
2023-04-29T10:03:13.289Z,66.18
2023-04-29T10:07:17.458Z,66.31
2023-04-29T10:11:20.626Z,66.50
2023-04-29T10:15:44.181Z,66.14
2023-04-29T10:20:00.073Z,65.96
2023-04-29T10:24:03.816Z,65.60
2023-04-29T10:28:09.794Z,65.80
2023-04-29T10:32:13.737Z,65.83
2023-04-29T10:36:16.330Z,65.45
2023-04-29T10:40:54.949Z,65.40
2023-04-29T10:45:27.619Z,65.31
2023-04-29T10:49:34.966Z,64.49
2023-04-29T10:53:38.578Z,64.69
2023-04-29T10:57:42.447Z,64.43
2023-04-29T11:01:49.938Z,63.85
2023-04-29T11:06:09.394Z,63.56
2023-04-29T11:10:13.590Z,63.18
2023-04-29T11:14:21.496Z,63.16
2023-04-29T11:18:23.796Z,62.76
2023-04-29T11:22:34.008Z,63.03
2023-04-29T11:26:36.740Z,61.78
2023-04-29T11:30:38.920Z,61.97
2023-04-29T11:34:40.821Z,61.56
2023-04-29T11:38:42.655Z,60.01
2023-04-29T11:42:46.275Z,60.63
2023-04-29T11:46:48.210Z,60.45
2023-04-29T11:50:52.519Z,60.14
2023-04-29T11:54:54.657Z,59.76
2023-04-29T11:58:58.158Z,58.96
2023-04-29T12:03:00.123Z,59.16
2023-04-29T12:07:04.094Z,58.79
2023-04-29T12:11:08.077Z,59.75
2023-04-29T12:15:10.886Z,60.31
2023-04-29T12:19:12.853Z,61.19
2023-04-29T12:23:19.571Z,61.42
2023-04-29T12:27:21.928Z,61.74
2023-04-29T12:31:24.704Z,62.34
2023-04-29T12:35:27.161Z,62.63
2023-04-29T12:39:31.324Z,62.50
2023-04-29T12:43:33.972Z,62.51
2023-04-29T12:47:37.366Z,62.29
2023-04-29T12:51:39.505Z,62.24
2023-04-29T12:55:41.490Z,62.48
2023-04-29T12:59:43.374Z,61.69
2023-04-29T13:03:45.457Z,61.51
2023-04-29T13:07:47.514Z,62.24
2023-04-29T13:11:49.334Z,62.61
2023-04-29T13:15:51.184Z,62.46
2023-04-29T13:19:52.985Z,62.53
2023-04-29T13:23:55.198Z,62.74
2023-04-29T13:27:56.994Z,62.07
2023-04-29T13:31:59.028Z,62.35
2023-04-29T13:36:01.108Z,61.98
2023-04-29T13:40:02.957Z,61.87
2023-04-29T13:44:07.586Z,61.89
2023-04-29T14:01:10.451Z,61.20
2023-04-29T14:05:01.980Z,61.66
2023-04-29T14:09:04.586Z,61.90
2023-04-29T14:13:06.623Z,61.24
2023-04-29T14:17:09.034Z,61.22
2023-04-29T14:21:11.565Z,60.90
2023-04-29T14:25:13.741Z,60.89
2023-04-29T14:29:15.638Z,60.83
2023-04-29T14:33:17.438Z,61.02
2023-04-29T14:37:19.478Z,60.99
2023-04-29T14:41:24.070Z,60.82
2023-04-29T14:45:26.142Z,60.88
2023-04-29T14:49:30.973Z,60.46
2023-04-29T14:53:34.042Z,60.39
2023-04-29T14:57:35.870Z,60.32
2023-04-29T15:01:38.648Z,60.36
2023-04-29T15:05:40.482Z,60.14
2023-04-29T15:09:42.643Z,60.28
2023-04-29T15:13:44.745Z,59.78
2023-04-29T15:17:47.323Z,60.61
2023-04-29T15:21:49.266Z,60.70
2023-04-29T15:25:51.231Z,60.66
2023-04-29T15:29:54.725Z,60.42
2023-04-29T15:33:56.797Z,60.53
2023-04-29T15:37:59.446Z,60.20
2023-04-29T15:42:01.262Z,59.56
2023-04-29T15:46:03.214Z,58.61
2023-04-29T15:50:05.504Z,59.09
2023-04-29T15:54:07.960Z,58.24
2023-04-29T15:58:09.779Z,57.07
2023-04-29T16:02:12.007Z,56.47
2023-04-29T16:06:13.887Z,57.35
2023-04-29T16:10:15.770Z,57.16
2023-04-29T16:14:17.562Z,55.89
2023-04-29T16:18:19.678Z,56.06
2023-04-29T16:22:21.513Z,55.33
2023-04-29T16:26:23.962Z,55.73
2023-04-29T16:30:25.841Z,54.77
2023-04-29T16:34:27.729Z,54.36
2023-04-29T16:38:29.577Z,54.82
2023-04-29T16:42:31.420Z,54.63
2023-04-29T16:46:33.658Z,54.16
2023-04-29T16:50:37.782Z,53.79
2023-04-29T16:54:39.771Z,53.39
2023-04-29T16:58:41.659Z,53.81
2023-04-29T17:02:45.309Z,53.09
2023-04-29T17:06:47.349Z,52.70
2023-04-29T17:10:49.295Z,53.14
2023-04-29T17:14:51.070Z,52.07
2023-04-29T17:18:53.002Z,51.83
2023-04-29T17:22:54.813Z,51.44
2023-04-29T17:26:56.817Z,51.07
2023-04-29T17:31:01.303Z,50.28
2023-04-29T17:35:03.687Z,50.40
2023-04-29T17:39:05.445Z,50.77
2023-04-29T17:43:07.213Z,49.21
2023-04-29T17:47:11.163Z,48.76
2023-04-29T17:51:12.989Z,48.86
2023-04-29T17:55:14.888Z,48.39
2023-04-29T17:59:16.760Z,48.40
2023-04-29T18:03:18.692Z,48.79
2023-04-29T18:07:20.569Z,49.02
2023-04-29T18:11:22.466Z,49.39
2023-04-29T18:15:24.414Z,49.33
2023-04-29T18:19:26.330Z,49.58
2023-04-29T18:23:28.196Z,49.79
2023-04-29T18:27:30.070Z,50.33
2023-04-29T18:31:32.061Z,50.02
2023-04-29T18:35:33.902Z,49.60
2023-04-29T18:39:35.862Z,50.65
2023-04-29T18:43:37.875Z,50.91
2023-04-29T18:47:39.686Z,51.09
2023-04-29T18:51:42.252Z,51.46
2023-04-29T18:55:44.432Z,52.03
2023-04-29T18:59:46.256Z,52.56
2023-04-29T19:03:48.095Z,53.09
2023-04-29T19:07:50.086Z,53.56
2023-04-29T19:11:52.000Z,53.55
2023-04-29T19:15:55.355Z,53.69
2023-04-29T19:19:57.241Z,54.58
2023-04-29T19:23:59.187Z,54.85
2023-04-29T19:28:01.009Z,55.42
2023-04-29T19:32:03.786Z,55.54
2023-04-29T19:36:05.678Z,55.78
2023-04-29T19:40:10.753Z,56.74
2023-04-29T19:44:12.702Z,58.21
2023-04-29T19:48:14.647Z,58.77
2023-04-29T19:52:16.440Z,59.64
2023-04-29T19:56:20.163Z,60.30
2023-04-29T20:00:22.521Z,60.73
2023-04-29T20:04:25.640Z,61.56
2023-04-29T20:08:27.598Z,62.12
2023-04-29T20:12:29.374Z,62.40
2023-04-29T20:16:32.272Z,62.70
2023-04-29T20:20:34.089Z,63.44
2023-04-29T20:24:35.968Z,63.91
2023-04-29T20:28:38.581Z,64.66
2023-04-29T20:32:40.519Z,64.88
2023-04-29T20:36:42.554Z,65.24
2023-04-29T20:40:44.617Z,65.79
2023-04-29T20:44:46.914Z,66.41
2023-04-29T20:48:49.176Z,66.85
2023-04-29T20:52:52.694Z,67.04
2023-04-29T20:56:54.514Z,67.36
2023-04-29T21:00:56.656Z,67.62
2023-04-29T21:04:58.606Z,67.99
2023-04-29T21:09:01.078Z,68.05
2023-04-29T21:13:03.045Z,68.53
2023-04-29T21:17:04.909Z,68.63
2023-04-29T21:21:06.903Z,68.82
2023-04-29T21:25:09.378Z,69.14
2023-04-29T21:29:11.250Z,69.76
2023-04-29T21:33:13.112Z,70.09
2023-04-29T21:37:15.842Z,70.48
2023-04-29T21:41:31.973Z,70.87
2023-04-29T21:45:34.369Z,70.67
2023-04-29T21:49:36.741Z,70.96
2023-04-29T21:53:38.763Z,71.38
2023-04-29T21:57:44.087Z,72.19
2023-04-29T22:01:46.598Z,72.09
2023-04-29T22:05:48.504Z,71.96
2023-04-29T22:09:50.326Z,72.31
2023-04-29T22:13:52.229Z,72.54
2023-04-29T22:17:54.454Z,72.83
2023-04-29T22:21:56.906Z,73.21
2023-04-29T22:25:58.712Z,73.28
2023-04-29T22:30:00.638Z,73.12
2023-04-29T22:34:02.692Z,73.27
2023-04-29T22:38:04.685Z,73.60
2023-04-29T22:42:07.305Z,73.71
2023-04-29T22:46:09.876Z,74.07
2023-04-29T22:50:11.978Z,74.17
2023-04-29T22:54:13.807Z,73.96
2023-04-29T22:58:15.845Z,74.30
2023-04-29T23:02:17.656Z,74.59
2023-04-29T23:06:21.453Z,74.90
2023-04-29T23:10:23.378Z,74.94
2023-04-29T23:14:25.210Z,75.23
2023-04-29T23:18:27.049Z,75.34
2023-04-29T23:22:28.998Z,75.93
2023-04-29T23:26:30.836Z,75.97
2023-04-29T23:30:33.204Z,76.33
2023-04-29T23:34:35.117Z,76.44
2023-04-29T23:38:36.928Z,76.33
2023-04-29T23:42:38.801Z,77.04
2023-04-29T23:46:40.784Z,77.11
2023-04-29T23:50:42.760Z,77.36
2023-04-29T23:54:44.562Z,77.37
2023-04-29T23:58:46.412Z,77.37
